createdAt,value
2023-01-29T00:00:25.185Z,86.37
2023-01-29T00:03:53.355Z,86.28
2023-01-29T00:07:18.530Z,85.07
2023-01-29T00:10:44.034Z,86.01
2023-01-29T00:14:10.804Z,84.96
2023-01-29T00:17:37.401Z,82.40
2023-01-29T00:21:02.278Z,84.05
2023-01-29T00:24:27.835Z,85.39
2023-01-29T00:27:55.916Z,85.12
2023-01-29T00:31:24.034Z,82.35
2023-01-29T00:34:49.465Z,85.10
2023-01-29T00:38:14.983Z,84.30
2023-01-29T00:41:57.607Z,86.05
2023-01-29T00:45:23.302Z,85.65
2023-01-29T00:48:50.280Z,82.83
2023-01-29T00:52:28.329Z,83.73
2023-01-29T00:55:53.708Z,84.22
2023-01-29T00:59:19.125Z,83.16
2023-01-29T01:03:01.748Z,83.38
2023-01-29T01:06:28.592Z,83.58
2023-01-29T01:10:10.501Z,84.27
2023-01-29T01:13:36.831Z,85.13
2023-01-29T01:17:02.458Z,86.25
2023-01-29T01:20:28.179Z,86.99
2023-01-29T01:23:54.541Z,86.34
2023-01-29T01:27:20.242Z,83.40
2023-01-29T01:30:45.377Z,84.13
2023-01-29T01:34:14.145Z,84.43
2023-01-29T01:37:39.666Z,85.50
2023-01-29T01:41:07.025Z,85.34
2023-01-29T01:45:08.688Z,85.62
2023-01-29T01:48:35.426Z,85.76
2023-01-29T01:52:01.668Z,86.98
2023-01-29T01:55:29.320Z,86.63
2023-01-29T01:58:57.510Z,87.94
2023-01-29T02:02:40.666Z,86.94
2023-01-29T02:06:24.806Z,88.43
2023-01-29T02:09:52.178Z,88.08
2023-01-29T02:13:21.881Z,87.87
2023-01-29T02:16:49.040Z,89.98
2023-01-29T02:20:20.051Z,90.50
2023-01-29T02:24:13.947Z,89.92
2023-01-29T02:27:55.265Z,89.00
2023-01-29T02:31:30.333Z,89.30
2023-01-29T02:35:18.147Z,89.53
2023-01-29T02:38:46.630Z,90.29
2023-01-29T02:42:15.437Z,91.51
2023-01-29T02:45:46.793Z,90.53
2023-01-29T02:49:15.921Z,90.81
2023-01-29T02:52:45.679Z,93.55
2023-01-29T02:56:16.384Z,95.07
2023-01-29T02:59:43.094Z,94.67
2023-01-29T03:03:10.453Z,92.36
2023-01-29T03:06:39.930Z,92.47
2023-01-29T03:10:05.994Z,94.12
2023-01-29T03:13:36.119Z,94.49
2023-01-29T03:17:02.047Z,95.27
2023-01-29T03:20:30.246Z,95.14
2023-01-29T03:24:14.622Z,92.46
2023-01-29T03:27:58.329Z,92.79
2023-01-29T03:31:42.458Z,92.59
2023-01-29T03:35:09.347Z,91.27
2023-01-29T03:38:35.543Z,89.99
2023-01-29T03:42:05.192Z,93.13
2023-01-29T03:45:45.995Z,92.50
2023-01-29T03:49:14.492Z,89.53
2023-01-29T03:52:42.730Z,90.87
2023-01-29T03:56:09.612Z,89.71
2023-01-29T03:59:40.732Z,92.35
2023-01-29T04:03:09.220Z,91.44
2023-01-29T04:06:36.380Z,92.58
2023-01-29T04:10:02.408Z,92.03
2023-01-29T04:13:28.135Z,93.51
2023-01-29T04:16:56.007Z,92.31
2023-01-29T04:20:22.343Z,90.62
2023-01-29T04:23:47.863Z,92.99
2023-01-29T04:27:23.727Z,92.46
2023-01-29T04:30:52.882Z,91.20
2023-01-29T04:34:24.593Z,91.21
2023-01-29T04:37:53.287Z,92.85
2023-01-29T04:41:23.271Z,90.55
2023-01-29T04:44:53.091Z,91.51
2023-01-29T04:48:22.189Z,90.03
2023-01-29T04:51:56.963Z,89.56
2023-01-29T04:55:24.017Z,87.80
2023-01-29T04:58:51.476Z,89.93
2023-01-29T05:02:17.613Z,90.13
2023-01-29T05:05:46.506Z,90.60
2023-01-29T05:09:14.282Z,91.78
2023-01-29T05:12:40.107Z,92.59
2023-01-29T05:16:13.171Z,93.38
2023-01-29T05:19:38.518Z,93.67
2023-01-29T05:23:04.983Z,92.50
2023-01-29T05:26:48.704Z,93.15
2023-01-29T05:30:14.976Z,92.79
2023-01-29T05:33:40.657Z,92.49
2023-01-29T05:37:08.842Z,93.03
2023-01-29T05:40:33.646Z,94.00
2023-01-29T05:44:00.290Z,92.10
2023-01-29T05:47:25.403Z,91.43
2023-01-29T05:50:51.025Z,90.17
2023-01-29T05:54:16.242Z,89.72
2023-01-29T05:57:43.386Z,90.35
2023-01-29T06:01:14.743Z,89.59
2023-01-29T06:04:40.781Z,90.50
2023-01-29T06:08:06.185Z,90.44
2023-01-29T06:11:32.609Z,88.37
2023-01-29T06:14:57.743Z,89.60
2023-01-29T06:18:25.402Z,90.37
2023-01-29T06:21:50.813Z,90.03
2023-01-29T06:25:17.368Z,90.85
2023-01-29T06:28:42.751Z,93.10
2023-01-29T06:32:08.945Z,92.80
2023-01-29T06:35:35.838Z,93.41
2023-01-29T06:39:01.875Z,93.74
2023-01-29T06:42:28.747Z,95.64
2023-01-29T06:45:56.035Z,96.20
2023-01-29T06:49:21.009Z,96.20
2023-01-29T06:52:48.267Z,97.12
2023-01-29T06:56:13.102Z,96.39
2023-01-29T06:59:39.237Z,95.31
2023-01-29T07:03:04.486Z,95.96
2023-01-29T07:06:31.096Z,96.83
2023-01-29T07:09:57.501Z,95.84
2023-01-29T07:13:23.329Z,94.52
2023-01-29T07:16:48.330Z,93.61
2023-01-29T07:20:14.803Z,94.53
2023-01-29T07:23:40.779Z,94.48
2023-01-29T07:27:07.545Z,93.15
2023-01-29T07:30:32.755Z,92.01
2023-01-29T07:33:58.327Z,92.30
2023-01-29T07:37:23.231Z,91.58
2023-01-29T07:40:49.113Z,91.44
2023-01-29T07:44:16.164Z,90.60
2023-01-29T07:47:41.906Z,90.77
2023-01-29T07:51:06.742Z,90.52
2023-01-29T07:54:39.815Z,91.16
2023-01-29T07:58:05.921Z,90.51
2023-01-29T08:01:33.177Z,90.98
2023-01-29T08:04:59.109Z,88.80
2023-01-29T08:08:24.315Z,87.13
2023-01-29T08:11:49.943Z,87.63
2023-01-29T08:15:14.851Z,86.29
2023-01-29T08:18:45.294Z,86.95
2023-01-29T08:22:10.892Z,87.16
2023-01-29T08:25:36.204Z,85.42
2023-01-29T08:29:01.321Z,84.66
2023-01-29T08:32:27.252Z,84.41
2023-01-29T08:35:53.788Z,84.93
2023-01-29T08:39:20.025Z,84.27
2023-01-29T08:42:44.823Z,83.77
2023-01-29T08:46:10.805Z,83.90
2023-01-29T08:49:37.220Z,83.85
2023-01-29T08:53:04.558Z,84.92
2023-01-29T08:56:31.815Z,84.93
2023-01-29T08:59:58.290Z,84.22
2023-01-29T09:03:23.805Z,83.85
2023-01-29T09:06:48.780Z,84.06
2023-01-29T09:10:17.105Z,84.35
2023-01-29T09:13:43.108Z,84.67
2023-01-29T09:17:08.303Z,84.60
2023-01-29T09:20:33.740Z,84.42
2023-01-29T09:23:58.624Z,83.91
2023-01-29T09:27:25.473Z,83.60
2023-01-29T09:30:50.318Z,83.21
2023-01-29T09:34:16.220Z,84.09
2023-01-29T09:37:41.931Z,82.56
2023-01-29T09:41:11.640Z,83.67
2023-01-29T09:44:51.194Z,82.76
2023-01-29T09:48:16.851Z,82.08
2023-01-29T09:51:43.704Z,84.28
2023-01-29T09:55:15.535Z,84.62
2023-01-29T09:58:41.474Z,83.11
2023-01-29T10:02:12.831Z,82.61
2023-01-29T10:05:51.229Z,81.44
2023-01-29T10:09:58.324Z,82.80
2023-01-29T10:13:29.475Z,81.19
2023-01-29T10:17:06.830Z,82.46
2023-01-29T10:20:41.815Z,81.37
2023-01-29T10:24:19.713Z,82.06
2023-01-29T10:27:50.555Z,81.60
2023-01-29T10:31:16.925Z,80.52
2023-01-29T10:34:47.739Z,80.45
2023-01-29T10:38:23.635Z,79.80
2023-01-29T10:41:59.566Z,79.67
2023-01-29T10:45:28.051Z,80.19
2023-01-29T10:49:02.587Z,80.24
2023-01-29T10:52:36.293Z,79.74
2023-01-29T10:56:20.970Z,78.62
2023-01-29T10:59:58.566Z,78.27
2023-01-29T11:03:28.248Z,79.41
2023-01-29T11:06:53.488Z,78.60
2023-01-29T11:10:19.923Z,78.08
2023-01-29T11:13:53.540Z,78.18
2023-01-29T11:17:19.402Z,78.17
2023-01-29T11:20:44.693Z,76.08
2023-01-29T11:24:17.511Z,76.98
2023-01-29T11:27:46.337Z,78.15
2023-01-29T11:31:24.884Z,77.74
2023-01-29T11:35:06.594Z,76.30
2023-01-29T11:38:35.079Z,77.42
2023-01-29T11:42:01.353Z,76.81
2023-01-29T11:45:31.135Z,76.77
2023-01-29T11:48:59.322Z,76.01
2023-01-29T11:52:40.931Z,75.52
2023-01-29T11:56:08.245Z,76.66
2023-01-29T11:59:43.311Z,74.72
2023-01-29T12:03:09.852Z,74.45
2023-01-29T12:06:39.053Z,73.79
2023-01-29T12:10:04.374Z,74.74
2023-01-29T12:13:31.657Z,73.12
2023-01-29T12:16:57.583Z,71.82
2023-01-29T12:20:26.533Z,72.15
2023-01-29T12:24:03.445Z,73.05
2023-01-29T12:27:33.058Z,72.07
2023-01-29T12:31:09.329Z,72.93
2023-01-29T12:34:42.932Z,73.65
2023-01-29T12:38:11.112Z,73.95
2023-01-29T12:41:46.275Z,74.25
2023-01-29T12:45:13.206Z,73.03
2023-01-29T12:48:41.923Z,72.69
2023-01-29T12:52:10.608Z,73.26
2023-01-29T12:55:38.044Z,73.20
2023-01-29T12:59:07.675Z,73.22
2023-01-29T13:02:38.288Z,73.38
2023-01-29T13:06:05.685Z,71.96
2023-01-29T13:09:33.033Z,72.13
2023-01-29T13:13:00.276Z,71.24
2023-01-29T13:16:29.454Z,72.15
2023-01-29T13:19:56.047Z,70.81
2023-01-29T13:23:23.506Z,71.69
2023-01-29T13:26:49.212Z,71.25
2023-01-29T13:30:31.525Z,72.49
2023-01-29T13:34:01.870Z,72.08
2023-01-29T13:37:31.207Z,70.46
2023-01-29T13:40:56.796Z,71.42
2023-01-29T13:44:25.520Z,70.98
2023-01-29T13:47:51.118Z,70.12
2023-01-29T13:51:27.072Z,70.31
2023-01-29T13:54:57.921Z,70.97
2023-01-29T13:58:57.383Z,68.37
2023-01-29T14:02:24.330Z,68.05
2023-01-29T14:06:00.468Z,67.84
2023-01-29T14:09:59.167Z,69.09
2023-01-29T14:13:37.319Z,69.11
2023-01-29T14:17:04.937Z,69.30
2023-01-29T14:20:46.362Z,69.65
2023-01-29T14:24:19.117Z,69.46
2023-01-29T14:27:49.854Z,69.84
2023-01-29T14:31:15.665Z,70.22
2023-01-29T14:34:53.667Z,67.90
2023-01-29T14:38:22.590Z,68.81
2023-01-29T14:41:52.344Z,69.10
2023-01-29T14:45:27.448Z,69.99
2023-01-29T14:48:54.196Z,69.39
2023-01-29T14:52:19.815Z,69.14
2023-01-29T14:55:47.175Z,69.14
2023-01-29T14:59:19.064Z,68.62
2023-01-29T15:02:48.132Z,69.98
2023-01-29T15:06:18.063Z,69.52
2023-01-29T15:09:47.014Z,68.80
2023-01-29T15:13:21.904Z,69.58
2023-01-29T15:16:52.337Z,69.37
2023-01-29T15:20:33.008Z,69.23
2023-01-29T15:24:09.382Z,70.23
2023-01-29T15:27:35.694Z,70.69
2023-01-29T15:31:03.129Z,70.95
2023-01-29T15:34:31.317Z,72.06
2023-01-29T15:38:06.304Z,71.14
2023-01-29T15:41:34.075Z,70.47
2023-01-29T15:45:03.793Z,71.00
2023-01-29T15:48:32.998Z,72.00
2023-01-29T15:52:00.665Z,72.04
2023-01-29T15:55:32.434Z,73.75
2023-01-29T15:59:01.984Z,74.23
2023-01-29T16:02:41.039Z,73.61
2023-01-29T16:06:09.363Z,73.93
2023-01-29T16:09:35.610Z,74.30
2023-01-29T16:13:03.583Z,74.38
2023-01-29T16:16:30.092Z,75.32
2023-01-29T16:20:00.818Z,75.02
2023-01-29T16:23:29.553Z,75.80
2023-01-29T16:27:01.440Z,75.73
2023-01-29T16:30:30.028Z,74.77
2023-01-29T16:34:01.467Z,76.24
2023-01-29T16:37:28.624Z,75.83
2023-01-29T16:41:15.069Z,75.08
2023-01-29T16:44:41.574Z,76.14
2023-01-29T16:48:28.705Z,76.55
2023-01-29T16:51:57.098Z,76.33
2023-01-29T16:55:25.804Z,76.28
2023-01-29T16:59:13.547Z,75.76
2023-01-29T17:02:54.089Z,75.01
2023-01-29T17:06:25.599Z,74.78
2023-01-29T17:09:52.812Z,74.71
2023-01-29T17:13:27.022Z,75.56
2023-01-29T17:16:55.710Z,75.05
2023-01-29T17:20:23.580Z,75.33
2023-01-29T17:23:55.167Z,75.10
2023-01-29T17:27:26.436Z,75.33
2023-01-29T17:31:05.536Z,75.11
2023-01-29T17:34:32.694Z,75.84
2023-01-29T17:38:00.470Z,75.07
2023-01-29T17:41:31.418Z,75.58
2023-01-29T17:45:09.232Z,74.50
2023-01-29T17:48:42.846Z,75.21
2023-01-29T17:52:10.914Z,74.82
2023-01-29T17:55:45.437Z,74.62
2023-01-29T17:59:16.273Z,74.64
2023-01-29T18:02:45.716Z,73.79
2023-01-29T18:06:13.872Z,73.91
2023-01-29T18:09:43.443Z,73.95
2023-01-29T18:13:11.788Z,73.58
2023-01-29T18:16:39.683Z,74.45
2023-01-29T18:20:20.319Z,74.13
2023-01-29T18:23:51.380Z,75.30
2023-01-29T18:27:20.914Z,74.92
2023-01-29T20:44:38.920Z,84.47
2023-01-29T20:48:03.722Z,83.54
2023-01-29T20:51:27.872Z,82.80
2023-01-29T20:54:52.422Z,82.50
2023-01-29T20:58:16.995Z,81.73
2023-01-29T21:01:43.132Z,81.10
2023-01-29T21:05:07.823Z,82.25
2023-01-29T21:08:32.115Z,81.45
2023-01-29T21:11:56.454Z,81.95
2023-01-29T21:15:20.697Z,81.57
2023-01-29T21:18:46.933Z,82.06
2023-01-29T21:22:12.816Z,81.70
2023-01-29T21:25:36.766Z,81.80
2023-01-29T21:29:00.789Z,81.53
2023-01-29T21:32:25.120Z,82.23
2023-01-29T21:35:58.604Z,83.34
2023-01-29T21:39:24.398Z,83.98
2023-01-29T21:43:05.175Z,84.54
2023-01-29T21:46:27.841Z,85.83
2023-01-29T21:49:51.208Z,83.54
2023-01-29T21:53:15.538Z,83.35
2023-01-29T21:56:38.005Z,83.44
2023-01-29T22:00:01.135Z,83.70
2023-01-29T22:03:26.485Z,83.23
2023-01-29T22:06:49.681Z,82.85
2023-01-29T22:10:13.666Z,83.77
2023-01-29T22:13:36.346Z,83.77
2023-01-29T22:16:58.981Z,83.37
2023-01-29T22:20:29.701Z,83.47
2023-01-29T22:23:52.044Z,83.96
2023-01-29T22:27:16.256Z,83.06
2023-01-29T22:30:41.478Z,83.43
2023-01-29T22:34:04.448Z,82.62
2023-01-29T22:37:26.969Z,82.32
2023-01-29T22:40:51.012Z,82.52
2023-01-29T22:44:14.691Z,83.28
2023-01-29T22:47:37.055Z,82.57
2023-01-29T22:51:10.065Z,82.92
2023-01-29T22:54:32.949Z,82.79
2023-01-29T22:57:55.469Z,82.88
2023-01-29T23:01:20.601Z,83.89
2023-01-29T23:04:43.165Z,83.24
2023-01-29T23:08:06.466Z,84.22
2023-01-29T23:11:29.129Z,82.46
2023-01-29T23:14:51.698Z,83.28
2023-01-29T23:18:15.638Z,83.13
2023-01-29T23:21:38.497Z,84.52
2023-01-29T23:25:02.835Z,84.52
2023-01-29T23:28:24.915Z,83.87
2023-01-29T23:31:47.603Z,83.35
2023-01-29T23:35:11.919Z,84.17
2023-01-29T23:38:34.464Z,84.02
2023-01-29T23:42:00.160Z,84.37
2023-01-29T23:45:22.731Z,84.00
2023-01-29T23:48:45.758Z,85.74
2023-01-29T23:52:09.711Z,84.92
2023-01-29T23:55:32.293Z,84.13
2023-01-29T23:58:55.596Z,83.51
